createdAt,value
2019-04-06T00:00:26.132Z,982.08
2019-04-06T00:01:26.089Z,982.06
2019-04-06T00:02:26.084Z,982.08
2019-04-06T00:03:26.080Z,981.99
2019-04-06T00:04:26.047Z,982.00
2019-04-06T00:05:26.114Z,982.04
2019-04-06T00:06:26.046Z,982.11
2019-04-06T00:07:26.042Z,982.05
2019-04-06T00:08:26.030Z,982.06
2019-04-06T00:09:26.043Z,982.04
2019-04-06T00:10:26.026Z,982.04
2019-04-06T00:11:25.977Z,982.05
2019-04-06T00:12:25.958Z,981.98
2019-04-06T00:13:25.968Z,981.96
2019-04-06T00:14:25.945Z,982.01
2019-04-06T00:15:25.980Z,981.92
2019-04-06T00:16:25.936Z,981.96
2019-04-06T00:17:25.910Z,981.99
2019-04-06T00:18:25.897Z,981.97
2019-04-06T00:19:25.889Z,981.94
2019-04-06T00:20:25.908Z,981.92
2019-04-06T00:21:25.880Z,981.94
2019-04-06T00:22:25.858Z,981.92
2019-04-06T00:23:25.912Z,982.00
2019-04-06T00:24:25.870Z,981.93
2019-04-06T00:25:25.881Z,981.89
2019-04-06T00:26:25.836Z,981.83
2019-04-06T00:27:25.840Z,981.90
2019-04-06T00:28:25.812Z,981.86
2019-04-06T00:29:25.788Z,981.83
2019-04-06T00:30:25.803Z,981.87
2019-04-06T00:31:25.787Z,981.83
2019-04-06T00:32:25.761Z,981.82
2019-04-06T00:33:25.745Z,981.84
2019-04-06T00:34:25.735Z,981.81
2019-04-06T00:35:25.725Z,981.81
2019-04-06T00:36:25.747Z,981.76
2019-04-06T00:37:25.710Z,981.84
2019-04-06T00:38:25.706Z,981.82
2019-04-06T00:39:25.691Z,981.81
2019-04-06T00:40:25.682Z,981.86
2019-04-06T00:41:25.686Z,981.79
2019-04-06T00:42:25.657Z,981.84
2019-04-06T00:43:25.635Z,981.84
2019-04-06T00:44:25.642Z,981.83
2019-04-06T00:45:25.622Z,981.85
2019-04-06T00:46:25.646Z,981.83
2019-04-06T00:47:25.592Z,981.85
2019-04-06T00:48:25.571Z,981.83
2019-04-06T00:49:25.572Z,981.86
2019-04-06T00:50:25.576Z,981.84
2019-04-06T00:51:25.568Z,981.90
2019-04-06T00:52:25.530Z,981.90
2019-04-06T00:53:25.530Z,981.89
2019-04-06T00:54:25.508Z,981.87
2019-04-06T00:55:25.514Z,981.86
2019-04-06T00:56:25.519Z,981.84
2019-04-06T00:57:25.513Z,981.85
2019-04-06T00:58:25.560Z,981.84
2019-04-06T00:59:25.452Z,981.85
2019-04-06T01:00:25.440Z,981.87
2019-04-06T01:01:25.465Z,981.84
2019-04-06T01:02:25.428Z,981.82
2019-04-06T01:03:25.422Z,981.81
2019-04-06T01:04:25.464Z,981.86
2019-04-06T01:05:25.401Z,981.85
2019-04-06T01:06:25.406Z,981.79
2019-04-06T01:07:25.404Z,981.85
2019-04-06T01:08:25.378Z,981.80
2019-04-06T01:09:25.338Z,981.83
2019-04-06T01:10:25.351Z,981.86
2019-04-06T01:11:25.381Z,981.79
2019-04-06T01:12:25.314Z,981.78
2019-04-06T01:13:25.861Z,981.82
2019-04-06T01:14:25.312Z,981.81
2019-04-06T01:15:25.277Z,981.82
2019-04-06T01:16:25.293Z,981.77
2019-04-06T01:17:25.266Z,981.76
2019-04-06T01:18:25.253Z,981.76
2019-04-06T01:19:25.228Z,981.79
2019-04-06T01:20:25.215Z,981.76
2019-04-06T01:21:25.244Z,981.79
2019-04-06T01:22:25.195Z,981.76
2019-04-06T01:23:25.188Z,981.79
2019-04-06T01:24:25.182Z,981.82
2019-04-06T01:25:25.183Z,981.79
2019-04-06T01:26:25.197Z,981.78
2019-04-06T01:27:25.148Z,981.74
2019-04-06T01:28:25.154Z,981.79
2019-04-06T01:29:25.132Z,981.78
2019-04-06T01:30:25.147Z,981.78
2019-04-06T01:31:25.143Z,981.82
2019-04-06T01:32:25.133Z,981.79
2019-04-06T01:33:25.093Z,981.78
2019-04-06T01:34:25.257Z,981.76
2019-04-06T01:35:25.062Z,981.80
2019-04-06T01:36:25.077Z,981.80
2019-04-06T01:37:25.063Z,981.77
2019-04-06T01:38:25.129Z,981.74
2019-04-06T01:39:25.034Z,981.80
2019-04-06T01:40:25.014Z,981.73
2019-04-06T01:41:25.034Z,981.74
2019-04-06T01:42:24.983Z,981.77
2019-04-06T01:43:24.983Z,981.73
2019-04-06T01:44:24.974Z,981.73
2019-04-06T01:45:24.975Z,981.77
2019-04-06T01:46:24.979Z,981.70
2019-04-06T01:47:24.924Z,981.71
2019-04-06T01:48:24.938Z,981.74
2019-04-06T01:49:24.924Z,981.71
2019-04-06T01:50:24.899Z,981.73
2019-04-06T01:51:24.898Z,981.74
2019-04-06T01:52:24.873Z,981.74
2019-04-06T01:53:24.888Z,981.71
2019-04-06T01:54:24.862Z,981.74
2019-04-06T01:55:24.839Z,981.74
2019-04-06T01:56:24.863Z,981.69
2019-04-06T01:57:24.819Z,981.67
2019-04-06T01:58:24.821Z,981.66
2019-04-06T01:59:24.820Z,981.72
2019-04-06T02:00:24.801Z,981.73
2019-04-06T02:01:24.852Z,981.66
2019-04-06T02:02:24.816Z,981.69
2019-04-06T02:03:24.761Z,981.69
2019-04-06T02:04:24.763Z,981.62
2019-04-06T02:05:24.824Z,981.65
2019-04-06T02:06:24.731Z,981.67
2019-04-06T02:07:24.739Z,981.60
2019-04-06T02:08:24.701Z,981.65
2019-04-06T02:09:24.720Z,981.62
2019-04-06T02:10:24.679Z,981.60
2019-04-06T02:11:24.671Z,981.59
2019-04-06T02:12:24.685Z,981.59
2019-04-06T02:13:24.645Z,981.58
2019-04-06T02:14:24.643Z,981.63
2019-04-06T02:15:24.634Z,981.58
2019-04-06T02:16:24.607Z,981.58
2019-04-06T02:17:24.619Z,981.53
2019-04-06T02:18:24.591Z,981.55
2019-04-06T02:19:24.583Z,981.60
2019-04-06T02:20:24.555Z,981.59
2019-04-06T02:21:24.567Z,981.63
2019-04-06T02:22:24.646Z,981.55
2019-04-06T02:23:24.546Z,981.58
2019-04-06T02:24:24.542Z,981.55
2019-04-06T02:25:24.526Z,981.55
2019-04-06T02:26:30.132Z,981.61
2019-04-06T02:27:25.522Z,981.53
2019-04-06T02:28:24.488Z,981.58
2019-04-06T02:29:24.497Z,981.61
2019-04-06T02:30:24.539Z,981.54
2019-04-06T02:31:24.457Z,981.57
2019-04-06T02:32:24.469Z,981.59
2019-04-06T02:33:24.444Z,981.55
2019-04-06T02:34:24.433Z,981.57
2019-04-06T02:35:24.402Z,981.52
2019-04-06T02:36:24.399Z,981.55
2019-04-06T02:37:24.520Z,981.57
2019-04-06T02:38:24.512Z,981.62
2019-04-06T02:39:24.378Z,981.67
2019-04-06T02:40:24.355Z,981.62
2019-04-06T02:41:24.361Z,981.66
2019-04-06T02:42:24.377Z,981.62
2019-04-06T02:43:24.327Z,981.58
2019-04-06T02:44:24.324Z,981.63
2019-04-06T02:45:24.308Z,981.67
2019-04-06T02:46:24.319Z,981.56
2019-04-06T02:47:24.311Z,981.58
2019-04-06T02:48:24.299Z,981.53
2019-04-06T02:49:24.261Z,981.58
2019-04-06T02:50:24.236Z,981.58
2019-04-06T02:51:24.239Z,981.60
2019-04-06T02:52:24.255Z,981.59
2019-04-06T02:53:24.210Z,981.59
2019-04-06T02:54:24.225Z,981.64
2019-04-06T02:55:24.228Z,981.61
2019-04-06T02:56:24.198Z,981.49
2019-04-06T02:57:24.212Z,981.61
2019-04-06T02:58:24.971Z,981.54
2019-04-06T02:59:24.158Z,981.62
2019-04-06T03:00:24.141Z,981.54
2019-04-06T03:01:24.165Z,981.61
2019-04-06T03:02:24.162Z,981.60
2019-04-06T03:03:24.120Z,981.63
2019-04-06T03:04:24.120Z,981.59
2019-04-06T03:05:24.090Z,981.62
2019-04-06T03:06:24.095Z,981.57
2019-04-06T03:07:24.273Z,981.60
2019-04-06T03:08:24.069Z,981.61
2019-04-06T03:09:24.216Z,981.63
2019-04-06T03:10:24.028Z,981.59
2019-04-06T03:11:24.174Z,981.63
2019-04-06T03:12:24.045Z,981.62
2019-04-06T03:13:24.003Z,981.71
2019-04-06T03:14:24.069Z,981.70
2019-04-06T03:15:23.985Z,981.66
2019-04-06T03:16:24.048Z,981.66
2019-04-06T03:17:23.998Z,981.66
2019-04-06T03:18:23.957Z,981.67
2019-04-06T03:19:23.954Z,981.65
2019-04-06T03:20:24.015Z,981.64
2019-04-06T03:21:23.993Z,981.58
2019-04-06T03:22:23.925Z,981.62
2019-04-06T03:23:25.275Z,981.57
2019-04-06T03:24:23.893Z,981.64
2019-04-06T03:25:23.867Z,981.63
2019-04-06T03:26:23.869Z,981.58
2019-04-06T03:27:23.878Z,981.54
2019-04-06T03:28:23.866Z,981.59
2019-04-06T03:29:23.832Z,981.62
2019-04-06T03:30:23.807Z,981.59
2019-04-06T03:31:27.404Z,981.54
2019-04-06T03:32:23.813Z,981.58
2019-04-06T03:33:23.836Z,981.62
2019-04-06T03:34:23.789Z,981.50
2019-04-06T03:35:23.943Z,981.51
2019-04-06T03:36:23.760Z,981.51
2019-04-06T03:37:23.729Z,981.51
2019-04-06T03:38:23.772Z,981.46
2019-04-06T03:39:23.738Z,981.48
2019-04-06T03:40:23.721Z,981.47
2019-04-06T03:41:23.711Z,981.50
2019-04-06T03:42:23.718Z,981.49
2019-04-06T03:43:23.718Z,981.47
2019-04-06T03:44:23.670Z,981.53
2019-04-06T03:45:23.641Z,981.51
2019-04-06T03:46:23.637Z,981.40
2019-04-06T03:47:23.629Z,981.49
2019-04-06T03:48:23.643Z,981.51
2019-04-06T03:49:23.608Z,981.51
2019-04-06T03:50:23.582Z,981.54
2019-04-06T03:51:23.603Z,981.57
2019-04-06T03:52:23.683Z,981.56
2019-04-06T03:53:23.592Z,981.46
2019-04-06T03:54:23.550Z,981.50
2019-04-06T03:55:23.567Z,981.51
2019-04-06T03:56:23.537Z,981.51
2019-04-06T03:57:23.521Z,981.59
2019-04-06T03:58:23.734Z,981.53
2019-04-06T03:59:23.527Z,981.52
2019-04-06T04:00:23.670Z,981.54
2019-04-06T04:01:23.501Z,981.54
2019-04-06T04:02:23.478Z,981.48
2019-04-06T04:03:23.617Z,981.51
2019-04-06T04:04:23.465Z,981.48
2019-04-06T04:05:23.430Z,981.51
2019-04-06T04:06:23.455Z,981.48
2019-04-06T04:07:23.518Z,981.46
2019-04-06T04:08:23.429Z,981.52
2019-04-06T04:09:23.399Z,981.61
2019-04-06T04:10:23.385Z,981.61
2019-04-06T04:11:23.389Z,981.60
2019-04-06T04:12:23.628Z,981.61
2019-04-06T04:13:23.383Z,981.65
2019-04-06T04:14:23.358Z,981.56
2019-04-06T04:15:23.523Z,981.59
2019-04-06T04:16:23.310Z,981.54
2019-04-06T04:17:23.311Z,981.58
2019-04-06T04:18:23.319Z,981.57
2019-04-06T04:19:23.289Z,981.54
2019-04-06T04:20:23.270Z,981.55
2019-04-06T04:21:23.270Z,981.52
2019-04-06T04:22:23.254Z,981.55
2019-04-06T04:23:23.273Z,981.51
2019-04-06T04:24:23.248Z,981.53
2019-04-06T04:25:23.222Z,981.51
2019-04-06T04:26:23.376Z,981.60
2019-04-06T04:27:29.894Z,981.57
2019-04-06T04:28:24.223Z,981.64
2019-04-06T04:29:23.178Z,981.61
2019-04-06T04:30:32.519Z,981.63
2019-04-06T04:31:24.160Z,981.65
2019-04-06T04:32:23.157Z,981.64
2019-04-06T04:33:23.169Z,981.65
2019-04-06T04:34:23.168Z,981.67
2019-04-06T04:35:23.118Z,981.63
2019-04-06T04:36:23.088Z,981.69
2019-04-06T04:37:23.103Z,981.66
2019-04-06T04:38:23.131Z,981.68
2019-04-06T04:39:23.082Z,981.61
2019-04-06T04:40:23.061Z,981.60
2019-04-06T04:41:23.116Z,981.68
2019-04-06T04:42:23.039Z,981.64
2019-04-06T04:43:23.064Z,981.67
2019-04-06T04:44:23.025Z,981.65
2019-04-06T04:45:22.994Z,981.75
2019-04-06T04:46:23.014Z,981.75
2019-04-06T04:47:22.979Z,981.77
2019-04-06T04:48:23.238Z,981.77
2019-04-06T04:49:22.991Z,981.69
2019-04-06T04:50:22.976Z,981.75
2019-04-06T04:51:22.938Z,981.73
2019-04-06T04:52:22.934Z,981.75
2019-04-06T04:53:22.944Z,981.67
2019-04-06T04:54:22.918Z,981.81
2019-04-06T04:55:22.916Z,981.76
2019-04-06T04:56:22.997Z,981.83
2019-04-06T04:57:22.876Z,981.74
2019-04-06T04:58:22.886Z,981.73
2019-04-06T04:59:23.034Z,981.81
2019-04-06T05:00:22.857Z,981.76
2019-04-06T05:01:22.842Z,981.82
2019-04-06T05:02:22.836Z,981.77
2019-04-06T05:03:22.827Z,981.83
2019-04-06T05:04:22.786Z,981.86
2019-04-06T05:05:22.797Z,981.83
2019-04-06T05:06:22.771Z,981.78
2019-04-06T05:07:22.779Z,981.83
2019-04-06T05:08:22.792Z,981.81
2019-04-06T05:09:22.746Z,981.94
2019-04-06T05:10:22.761Z,981.84
2019-04-06T05:11:22.750Z,981.86
2019-04-06T05:12:22.728Z,981.88
2019-04-06T05:13:22.737Z,981.93
2019-04-06T05:14:22.687Z,981.84
2019-04-06T05:15:22.682Z,981.83
2019-04-06T05:16:22.680Z,981.90
2019-04-06T05:17:22.691Z,981.90
2019-04-06T05:18:22.682Z,981.94
2019-04-06T05:19:22.652Z,981.92
2019-04-06T05:20:23.961Z,981.98
2019-04-06T05:21:22.628Z,981.97
2019-04-06T05:22:22.618Z,981.95
2019-04-06T05:23:22.611Z,981.99
2019-04-06T05:24:22.627Z,981.98
2019-04-06T05:25:22.577Z,982.01
2019-04-06T05:26:22.581Z,982.04
2019-04-06T05:27:22.591Z,982.02
2019-04-06T05:28:22.563Z,982.04
2019-04-06T05:29:22.557Z,982.05
2019-04-06T05:30:22.541Z,982.04
2019-04-06T05:31:22.524Z,982.04
2019-04-06T05:32:22.643Z,982.05
2019-04-06T05:33:22.581Z,982.07
2019-04-06T05:34:22.514Z,982.01
2019-04-06T05:35:22.483Z,982.01
2019-04-06T05:36:22.451Z,982.02
2019-04-06T05:37:22.686Z,982.07
2019-04-06T05:38:22.438Z,982.09
2019-04-06T05:39:22.456Z,982.05
2019-04-06T05:40:22.416Z,982.02
2019-04-06T05:41:22.423Z,982.07
2019-04-06T05:42:22.402Z,982.09
2019-04-06T05:43:22.381Z,982.12
2019-04-06T05:44:22.398Z,982.09
2019-04-06T05:45:22.374Z,982.12
2019-04-06T05:46:22.353Z,982.10
2019-04-06T05:47:22.378Z,982.16
2019-04-06T05:48:22.364Z,982.11
2019-04-06T05:49:22.328Z,982.14
2019-04-06T05:50:22.334Z,982.14
2019-04-06T05:51:22.343Z,982.19
2019-04-06T05:52:22.290Z,982.18
2019-04-06T05:53:22.305Z,982.24
2019-04-06T05:54:22.285Z,982.17
2019-04-06T05:55:24.374Z,982.18
2019-04-06T05:56:22.249Z,982.21
2019-04-06T05:57:22.256Z,982.19
2019-04-06T05:58:22.230Z,982.16
2019-04-06T05:59:22.237Z,982.20
2019-04-06T06:00:22.207Z,982.25
2019-04-06T06:01:22.218Z,982.25
2019-04-06T06:02:22.347Z,982.21
2019-04-06T06:03:22.176Z,982.24
2019-04-06T06:04:22.208Z,982.27
2019-04-06T06:05:22.144Z,982.24
2019-04-06T06:06:22.159Z,982.25
2019-04-06T06:07:22.118Z,982.31
2019-04-06T06:08:22.164Z,982.28
2019-04-06T06:09:22.138Z,982.37
2019-04-06T06:10:22.118Z,982.28
2019-04-06T06:11:22.097Z,982.33
2019-04-06T06:12:22.225Z,982.31
2019-04-06T06:13:22.055Z,982.29
2019-04-06T06:14:22.099Z,982.32
2019-04-06T06:15:22.042Z,982.37
2019-04-06T06:16:22.036Z,982.27
2019-04-06T06:17:22.011Z,982.35
2019-04-06T06:18:27.105Z,982.40
2019-04-06T06:19:23.031Z,982.33
2019-04-06T06:20:22.006Z,982.29
2019-04-06T06:21:22.138Z,982.31
2019-04-06T06:22:21.962Z,982.30
2019-04-06T06:23:21.946Z,982.32
2019-04-06T06:24:22.106Z,982.34
2019-04-06T06:25:21.960Z,982.35
2019-04-06T06:26:21.967Z,982.36
2019-04-06T06:27:22.977Z,982.31
2019-04-06T06:28:21.914Z,982.34
2019-04-06T06:29:21.907Z,982.36
2019-04-06T06:30:21.877Z,982.36
2019-04-06T06:31:21.907Z,982.34
2019-04-06T06:32:21.862Z,982.40
2019-04-06T06:33:21.855Z,982.40
2019-04-06T06:34:21.863Z,982.40
2019-04-06T06:35:21.955Z,982.40
2019-04-06T06:36:22.045Z,982.40
2019-04-06T06:37:21.823Z,982.45
2019-04-06T06:38:21.781Z,982.41
2019-04-06T06:39:21.826Z,982.47
2019-04-06T06:40:21.756Z,982.45
2019-04-06T06:41:21.957Z,982.43
2019-04-06T06:42:21.769Z,982.38
2019-04-06T06:43:21.757Z,982.40
2019-04-06T06:44:21.746Z,982.39
2019-04-06T06:45:21.721Z,982.38
2019-04-06T06:46:21.722Z,982.36
2019-04-06T06:47:21.720Z,982.35
2019-04-06T06:48:21.673Z,982.45
2019-04-06T06:49:21.716Z,982.44
2019-04-06T06:50:21.666Z,982.37
2019-04-06T06:51:21.660Z,982.40
2019-04-06T06:52:21.640Z,982.37
2019-04-06T06:53:21.634Z,982.36
2019-04-06T06:54:21.684Z,982.34
2019-04-06T06:55:21.608Z,982.33
2019-04-06T06:56:21.591Z,982.44
2019-04-06T06:57:21.757Z,982.42
2019-04-06T06:58:25.675Z,982.38
2019-04-06T06:59:21.578Z,982.40
2019-04-06T07:00:21.538Z,982.43
2019-04-06T07:01:21.543Z,982.38
2019-04-06T07:02:21.540Z,982.34
2019-04-06T07:03:21.536Z,982.35
2019-04-06T07:04:21.543Z,982.33
2019-04-06T07:05:21.497Z,982.39
2019-04-06T07:06:21.525Z,982.41
2019-04-06T07:07:21.471Z,982.33
2019-04-06T07:08:21.595Z,982.34
2019-04-06T07:09:21.683Z,982.38
2019-04-06T07:10:21.444Z,982.30
2019-04-06T07:11:21.527Z,982.41
2019-04-06T07:12:21.431Z,982.48
2019-04-06T07:13:21.427Z,982.48
2019-04-06T07:14:21.428Z,982.40
2019-04-06T07:15:21.403Z,982.44
2019-04-06T07:16:21.367Z,982.36
2019-04-06T07:17:21.364Z,982.49
2019-04-06T07:18:21.371Z,982.51
2019-04-06T07:19:21.377Z,982.49
2019-04-06T07:20:21.479Z,982.47
2019-04-06T07:21:21.322Z,982.39
2019-04-06T07:22:21.314Z,982.41
2019-04-06T07:23:21.314Z,982.42
2019-04-06T07:24:21.520Z,982.34
2019-04-06T07:25:21.313Z,982.37
2019-04-06T07:26:21.278Z,982.52
2019-04-06T07:27:21.268Z,982.40
2019-04-06T07:28:21.260Z,982.37
2019-04-06T07:29:21.275Z,982.33
2019-04-06T07:30:21.421Z,982.35
2019-04-06T07:31:21.256Z,982.32
2019-04-06T07:32:21.215Z,982.34
2019-04-06T07:33:21.196Z,982.42
2019-04-06T07:34:21.181Z,982.54
2019-04-06T07:35:21.217Z,982.55
2019-04-06T07:36:21.198Z,982.28
2019-04-06T07:37:21.154Z,982.46
2019-04-06T07:38:21.150Z,982.40
2019-04-06T07:39:21.199Z,982.37
2019-04-06T07:40:21.156Z,982.43
2019-04-06T07:41:21.109Z,982.37
2019-04-06T07:42:21.454Z,982.49
2019-04-06T07:43:21.099Z,982.48
2019-04-06T07:44:21.100Z,982.54
2019-04-06T07:45:21.114Z,982.58
2019-04-06T07:46:21.065Z,982.59
2019-04-06T07:47:21.068Z,982.54
2019-04-06T07:48:21.046Z,982.47
2019-04-06T07:49:21.247Z,982.51
2019-04-06T07:50:21.052Z,982.56
2019-04-06T07:51:21.010Z,982.56
2019-04-06T07:52:21.022Z,982.63
2019-04-06T07:53:21.029Z,982.56
2019-04-06T07:54:21.004Z,982.58
2019-04-06T07:55:21.026Z,982.58
2019-04-06T07:56:20.977Z,982.51
2019-04-06T07:57:21.090Z,982.48
2019-04-06T07:58:20.964Z,982.52
2019-04-06T07:59:20.924Z,982.48
2019-04-06T08:00:20.938Z,982.44
2019-04-06T08:01:20.936Z,982.46
2019-04-06T08:02:20.877Z,982.47
2019-04-06T08:03:20.944Z,982.48
2019-04-06T08:04:20.874Z,982.51
2019-04-06T08:05:20.925Z,982.47
2019-04-06T08:06:20.849Z,982.47
2019-04-06T08:07:20.831Z,982.40
2019-04-06T08:08:20.852Z,982.42
2019-04-06T08:09:21.001Z,982.43
2019-04-06T08:10:20.862Z,982.49
2019-04-06T08:11:20.838Z,982.48
2019-04-06T08:12:21.159Z,982.49
2019-04-06T08:13:20.789Z,982.44
2019-04-06T08:14:20.796Z,982.46
2019-04-06T08:15:20.827Z,982.50
2019-04-06T08:16:20.735Z,982.48
2019-04-06T08:17:20.740Z,982.49
2019-04-06T08:18:20.758Z,982.47
2019-04-06T08:19:20.737Z,982.47
2019-04-06T08:20:20.732Z,982.48
2019-04-06T08:21:20.716Z,982.47
2019-04-06T08:22:20.673Z,982.47
2019-04-06T08:23:20.897Z,982.46
2019-04-06T08:24:20.668Z,982.36
2019-04-06T08:25:20.683Z,982.44
2019-04-06T08:26:20.658Z,982.42
2019-04-06T08:27:20.647Z,982.43
2019-04-06T08:28:20.632Z,982.46
2019-04-06T08:29:20.608Z,982.43
2019-04-06T08:30:20.854Z,982.49
2019-04-06T08:31:20.597Z,982.45
2019-04-06T08:32:20.581Z,982.38
2019-04-06T08:33:20.561Z,982.46
2019-04-06T08:34:20.561Z,982.48
2019-04-06T08:35:26.173Z,982.51
2019-04-06T08:36:21.539Z,982.49
2019-04-06T08:37:20.519Z,982.44
2019-04-06T08:38:20.526Z,982.48
2019-04-06T08:39:20.530Z,982.48
2019-04-06T08:40:20.538Z,982.50
2019-04-06T08:41:20.495Z,982.53
2019-04-06T08:42:20.500Z,982.47
2019-04-06T08:43:20.475Z,982.50
2019-04-06T08:44:20.453Z,982.52
2019-04-06T08:45:20.483Z,982.42
2019-04-06T08:46:20.436Z,982.42
2019-04-06T08:47:20.487Z,982.41
2019-04-06T08:48:20.665Z,982.48
2019-04-06T08:49:20.423Z,982.41
2019-04-06T08:50:20.427Z,982.40
2019-04-06T08:51:20.388Z,982.41
2019-04-06T08:52:20.392Z,982.44
2019-04-06T08:53:20.365Z,982.47
2019-04-06T08:54:20.372Z,982.39
2019-04-06T08:55:20.374Z,982.32
2019-04-06T08:56:20.368Z,982.44
2019-04-06T08:57:22.459Z,982.43
2019-04-06T08:58:20.359Z,982.20
2019-04-06T08:59:20.342Z,982.13
2019-04-06T09:00:20.331Z,982.38
2019-04-06T09:01:20.327Z,982.43
2019-04-06T09:02:20.302Z,982.42
2019-04-06T09:03:20.281Z,982.38
2019-04-06T09:04:20.282Z,982.36
2019-04-06T09:05:20.289Z,982.46
2019-04-06T09:06:20.240Z,982.38
2019-04-06T09:07:20.292Z,982.32
2019-04-06T09:08:20.251Z,982.38
2019-04-06T09:09:20.193Z,982.37
2019-04-06T09:10:20.213Z,982.29
2019-04-06T09:11:20.209Z,982.37
2019-04-06T09:12:20.179Z,982.32
2019-04-06T09:13:20.170Z,982.38
2019-04-06T09:14:20.179Z,982.34
2019-04-06T09:15:20.159Z,982.31
2019-04-06T09:16:20.160Z,982.42
2019-04-06T09:17:20.158Z,982.11
2019-04-06T09:18:20.367Z,982.25
2019-04-06T09:19:20.099Z,982.24
2019-04-06T09:20:20.289Z,982.08
2019-04-06T09:21:22.121Z,982.21
2019-04-06T09:22:20.062Z,982.08
2019-04-06T09:23:20.121Z,982.12
2019-04-06T09:24:20.072Z,982.13
2019-04-06T09:25:20.058Z,982.21
2019-04-06T09:26:20.065Z,982.20
2019-04-06T09:27:20.015Z,982.20
2019-04-06T09:28:20.010Z,982.14
2019-04-06T09:29:23.605Z,981.92
2019-04-06T09:30:20.021Z,982.16
2019-04-06T09:31:20.005Z,982.11
2019-04-06T09:32:19.990Z,982.09
2019-04-06T09:33:19.998Z,982.19
2019-04-06T09:34:19.956Z,982.23
2019-04-06T09:35:20.232Z,982.15
2019-04-06T09:36:19.971Z,981.95
2019-04-06T09:37:19.944Z,981.92
2019-04-06T09:38:19.926Z,981.84
2019-04-06T09:39:19.922Z,982.06
2019-04-06T09:40:19.895Z,982.05
2019-04-06T09:41:19.943Z,982.08
2019-04-06T09:42:19.874Z,981.94
2019-04-06T09:43:19.932Z,981.81
2019-04-06T09:44:19.862Z,981.87
2019-04-06T09:45:19.828Z,981.89
2019-04-06T09:46:19.855Z,981.92
2019-04-06T09:47:19.827Z,981.90
2019-04-06T09:48:19.808Z,982.00
2019-04-06T09:49:19.802Z,981.86
2019-04-06T09:50:19.786Z,981.89
2019-04-06T09:51:19.801Z,981.95
2019-04-06T09:52:19.766Z,981.90
2019-04-06T09:53:19.789Z,981.96
2019-04-06T09:54:19.749Z,981.93
2019-04-06T09:55:19.738Z,981.92
2019-04-06T09:56:19.753Z,982.04
2019-04-06T09:57:19.712Z,981.90
2019-04-06T09:58:19.790Z,981.92
2019-04-06T09:59:19.842Z,981.92
2019-04-06T10:00:19.882Z,981.89
2019-04-06T10:01:19.708Z,981.86
2019-04-06T10:02:19.655Z,982.01
2019-04-06T10:03:19.956Z,982.03
2019-04-06T10:04:19.634Z,981.92
2019-04-06T10:05:19.672Z,981.91
2019-04-06T10:06:19.742Z,982.05
2019-04-06T10:07:19.619Z,981.83
2019-04-06T10:08:19.853Z,981.87
2019-04-06T10:09:19.603Z,981.81
2019-04-06T10:10:19.585Z,981.90
2019-04-06T10:11:19.543Z,981.78
2019-04-06T10:12:19.563Z,981.97
2019-04-06T10:13:19.713Z,981.88
2019-04-06T10:14:19.545Z,981.90
2019-04-06T10:15:19.537Z,981.81
2019-04-06T10:16:19.528Z,981.84
2019-04-06T10:17:19.511Z,981.87
2019-04-06T10:18:19.477Z,981.94
2019-04-06T10:19:19.499Z,981.85
2019-04-06T10:20:19.594Z,981.78
2019-04-06T10:21:19.516Z,981.84
2019-04-06T10:22:19.563Z,981.81
2019-04-06T10:23:19.444Z,981.73
2019-04-06T10:24:19.502Z,981.78
2019-04-06T10:25:19.670Z,981.72
2019-04-06T10:26:19.393Z,981.72
2019-04-06T10:27:19.687Z,981.68
2019-04-06T10:28:19.396Z,981.75
2019-04-06T10:29:19.420Z,981.79
2019-04-06T10:30:19.353Z,981.74
2019-04-06T10:31:19.412Z,981.75
2019-04-06T10:32:19.356Z,981.70
2019-04-06T10:33:19.349Z,981.73
2019-04-06T10:34:19.328Z,981.77
2019-04-06T10:35:19.349Z,981.77
2019-04-06T10:36:19.289Z,981.63
2019-04-06T10:37:19.265Z,981.73
2019-04-06T10:38:19.303Z,981.72
2019-04-06T10:39:19.520Z,981.74
2019-04-06T10:40:19.295Z,981.70
2019-04-06T10:41:19.255Z,981.71
2019-04-06T10:42:19.249Z,981.71
2019-04-06T10:43:19.220Z,981.72
2019-04-06T10:44:19.358Z,981.73
2019-04-06T10:45:19.299Z,981.69
2019-04-06T10:46:19.428Z,981.62
2019-04-06T10:47:19.184Z,981.63
2019-04-06T10:48:19.174Z,981.72
2019-04-06T10:49:19.184Z,981.65
2019-04-06T10:50:19.205Z,981.61
2019-04-06T10:51:19.142Z,981.59
2019-04-06T10:52:19.147Z,981.50
2019-04-06T10:53:19.149Z,981.59
2019-04-06T10:54:19.141Z,981.53
2019-04-06T10:55:19.206Z,981.59
2019-04-06T10:56:19.099Z,981.54
2019-04-06T10:57:19.064Z,981.50
2019-04-06T10:58:19.071Z,981.47
2019-04-06T10:59:19.310Z,981.54
2019-04-06T11:00:19.097Z,981.43
2019-04-06T11:01:19.066Z,981.52
2019-04-06T11:02:19.032Z,981.52
2019-04-06T11:03:19.087Z,981.60
2019-04-06T11:04:19.024Z,981.55
2019-04-06T11:05:19.026Z,981.63
2019-04-06T11:06:18.981Z,981.55
2019-04-06T11:07:18.968Z,981.61
2019-04-06T11:08:18.964Z,981.61
2019-04-06T11:09:18.997Z,981.49
2019-04-06T11:10:18.981Z,981.57
2019-04-06T11:11:20.609Z,981.54
2019-04-06T11:12:18.916Z,981.55
2019-04-06T11:13:18.922Z,981.42
2019-04-06T11:14:18.956Z,981.56
2019-04-06T11:15:18.908Z,981.47
2019-04-06T11:16:19.118Z,981.45
2019-04-06T11:17:18.857Z,981.47
2019-04-06T11:18:18.863Z,981.47
2019-04-06T11:19:19.159Z,981.36
2019-04-06T11:20:18.867Z,981.40
2019-04-06T11:21:19.193Z,981.47
2019-04-06T11:22:18.816Z,981.46
2019-04-06T11:23:18.820Z,981.41
2019-04-06T11:24:18.766Z,981.47
2019-04-06T11:25:18.823Z,981.41
2019-04-06T11:26:18.781Z,981.48
2019-04-06T11:27:18.759Z,981.49
2019-04-06T11:28:18.759Z,981.41
2019-04-06T11:29:18.830Z,981.53
2019-04-06T11:30:18.759Z,981.46
2019-04-06T11:31:18.722Z,981.42
2019-04-06T11:32:18.924Z,981.40
2019-04-06T11:33:18.688Z,981.34
2019-04-06T11:34:21.573Z,981.46
2019-04-06T11:35:18.696Z,981.33
2019-04-06T11:36:18.698Z,981.35
2019-04-06T11:37:18.650Z,981.29
2019-04-06T11:38:18.649Z,981.38
2019-04-06T11:39:18.682Z,981.34
2019-04-06T11:40:18.672Z,981.36
2019-04-06T11:41:18.904Z,981.35
2019-04-06T11:42:18.597Z,981.37
2019-04-06T11:43:18.609Z,981.43
2019-04-06T11:44:18.650Z,981.39
2019-04-06T11:45:18.594Z,981.50
2019-04-06T11:46:18.566Z,981.44
2019-04-06T11:47:18.591Z,981.36
2019-04-06T11:48:18.542Z,981.35
2019-04-06T11:49:18.534Z,981.33
2019-04-06T11:50:18.554Z,981.40
2019-04-06T11:51:18.651Z,981.32
2019-04-06T11:52:18.793Z,981.30
2019-04-06T11:53:18.480Z,981.25
2019-04-06T11:54:18.469Z,981.26
2019-04-06T11:55:18.480Z,981.34
2019-04-06T11:56:18.583Z,981.34
2019-04-06T11:57:18.460Z,981.36
2019-04-06T11:58:18.809Z,981.24
2019-04-06T11:59:18.453Z,981.25
2019-04-06T12:00:25.537Z,981.23
2019-04-06T12:01:19.483Z,981.26
2019-04-06T12:02:18.417Z,981.24
2019-04-06T12:03:18.387Z,981.27
2019-04-06T12:04:18.377Z,981.28
2019-04-06T12:05:18.354Z,981.27
2019-04-06T12:06:18.399Z,981.23
2019-04-06T12:07:18.369Z,981.24
2019-04-06T12:08:18.314Z,981.25
2019-04-06T12:09:18.312Z,981.26
2019-04-06T12:10:18.277Z,981.19
2019-04-06T12:11:18.388Z,981.23
2019-04-06T12:12:18.548Z,981.29
2019-04-06T12:13:18.276Z,981.20
2019-04-06T12:14:18.464Z,981.18
2019-04-06T12:15:18.452Z,981.22
2019-04-06T12:16:18.251Z,981.29
2019-04-06T12:17:18.240Z,981.20
2019-04-06T12:18:18.610Z,981.30
2019-04-06T12:19:18.406Z,981.15
2019-04-06T12:20:18.472Z,981.20
2019-04-06T12:21:18.471Z,981.19
2019-04-06T12:22:18.504Z,981.17
2019-04-06T12:23:18.147Z,981.14
2019-04-06T12:24:18.150Z,981.21
2019-04-06T12:25:18.120Z,981.20
2019-04-06T12:26:18.175Z,981.13
2019-04-06T12:27:18.461Z,981.09
2019-04-06T12:28:20.750Z,981.15